sensor_id;sensor_type;location;lat;lon;timestamp;pressure;altitude;pressure_sealevel;temperature
68588;BMP180;55560;52.174;20.996;2022-12-20T00:01:51;101265.80;;;0.10
68588;BMP180;55560;52.174;20.996;2022-12-20T00:04:19;101259.80;;;0.18
68588;BMP180;55560;52.174;20.996;2022-12-20T00:06:47;101265.00;;;0.22
68588;BMP180;55560;52.174;20.996;2022-12-20T00:09:14;101254.00;;;0.30
68588;BMP180;55560;52.174;20.996;2022-12-20T00:11:42;101250.60;;;0.30
68588;BMP180;55560;52.174;20.996;2022-12-20T00:14:10;101247.00;;;0.30
68588;BMP180;55560;52.174;20.996;2022-12-20T00:16:38;101239.40;;;0.32
68588;BMP180;55560;52.174;20.996;2022-12-20T00:19:06;101236.80;;;0.30
68588;BMP180;55560;52.174;20.996;2022-12-20T00:21:34;101230.00;;;0.40
68588;BMP180;55560;52.174;20.996;2022-12-20T00:24:04;101228.00;;;0.40
68588;BMP180;55560;52.174;20.996;2022-12-20T00:26:33;101225.00;;;0.40
68588;BMP180;55560;52.174;20.996;2022-12-20T00:29:02;101215.80;;;0.40
68588;BMP180;55560;52.174;20.996;2022-12-20T00:31:31;101217.60;;;0.40
68588;BMP180;55560;52.174;20.996;2022-12-20T00:34:00;101216.80;;;0.40
68588;BMP180;55560;52.174;20.996;2022-12-20T00:36:31;101209.80;;;0.40
68588;BMP180;55560;52.174;20.996;2022-12-20T00:39:00;101211.00;;;0.40
68588;BMP180;55560;52.174;20.996;2022-12-20T00:41:32;101206.60;;;0.40
68588;BMP180;55560;52.174;20.996;2022-12-20T00:44:02;101213.20;;;0.40
68588;BMP180;55560;52.174;20.996;2022-12-20T00:46:30;101211.60;;;0.50
68588;BMP180;55560;52.174;20.996;2022-12-20T00:48:59;101211.40;;;0.50
68588;BMP180;55560;52.174;20.996;2022-12-20T00:51:29;101212.00;;;0.60
68588;BMP180;55560;52.174;20.996;2022-12-20T00:53:58;101212.20;;;0.60
68588;BMP180;55560;52.174;20.996;2022-12-20T00:56:27;101206.60;;;0.70
68588;BMP180;55560;52.174;20.996;2022-12-20T00:58:58;101204.00;;;0.70
68588;BMP180;55560;52.174;20.996;2022-12-20T01:01:32;101198.20;;;0.70
68588;BMP180;55560;52.174;20.996;2022-12-20T01:04:02;101196.20;;;0.78
68588;BMP180;55560;52.174;20.996;2022-12-20T01:06:30;101193.40;;;0.80
68588;BMP180;55560;52.174;20.996;2022-12-20T01:08:59;101189.80;;;0.80
68588;BMP180;55560;52.174;20.996;2022-12-20T01:11:31;101181.60;;;0.80
68588;BMP180;55560;52.174;20.996;2022-12-20T01:14:04;101183.60;;;0.80
68588;BMP180;55560;52.174;20.996;2022-12-20T01:16:38;101184.20;;;0.80
68588;BMP180;55560;52.174;20.996;2022-12-20T01:19:10;101184.80;;;0.90
68588;BMP180;55560;52.174;20.996;2022-12-20T01:21:39;101174.20;;;0.90
68588;BMP180;55560;52.174;20.996;2022-12-20T01:24:18;101171.80;;;1.00
68588;BMP180;55560;52.174;20.996;2022-12-20T01:26:47;101175.80;;;1.00
68588;BMP180;55560;52.174;20.996;2022-12-20T01:29:15;101172.80;;;1.10
68588;BMP180;55560;52.174;20.996;2022-12-20T01:31:43;101171.00;;;1.10
68588;BMP180;55560;52.174;20.996;2022-12-20T01:34:11;101169.20;;;1.12
68588;BMP180;55560;52.174;20.996;2022-12-20T01:36:39;101161.00;;;1.10
68588;BMP180;55560;52.174;20.996;2022-12-20T01:39:12;101158.00;;;1.12
68588;BMP180;55560;52.174;20.996;2022-12-20T01:41:43;101148.40;;;1.14
68588;BMP180;55560;52.174;20.996;2022-12-20T01:46:48;101139.60;;;1.20
68588;BMP180;55560;52.174;20.996;2022-12-20T01:49:29;101136.00;;;1.20
68588;BMP180;55560;52.174;20.996;2022-12-20T01:52:34;101128.60;;;1.20
68588;BMP180;55560;52.174;20.996;2022-12-20T01:55:11;101122.00;;;1.30
68588;BMP180;55560;52.174;20.996;2022-12-20T01:57:47;101121.20;;;1.36
68588;BMP180;55560;52.174;20.996;2022-12-20T02:00:18;101125.40;;;1.40
68588;BMP180;55560;52.174;20.996;2022-12-20T02:06:18;101104.80;;;1.40
68588;BMP180;55560;52.174;20.996;2022-12-20T02:08:48;101103.80;;;1.40
68588;BMP180;55560;52.174;20.996;2022-12-20T02:12:25;101099.60;;;1.40
68588;BMP180;55560;52.174;20.996;2022-12-20T02:14:58;101087.20;;;1.32
68588;BMP180;55560;52.174;20.996;2022-12-20T02:17:53;101090.20;;;1.40
68588;BMP180;55560;52.174;20.996;2022-12-20T02:20:47;101088.80;;;1.40
68588;BMP180;55560;52.174;20.996;2022-12-20T02:29:35;101082.20;;;1.56
68588;BMP180;55560;52.174;20.996;2022-12-20T02:32:16;101075.40;;;1.58
68588;BMP180;55560;52.174;20.996;2022-12-20T02:34:46;101067.40;;;1.56
68588;BMP180;55560;52.174;20.996;2022-12-20T02:37:15;101069.80;;;1.52
68588;BMP180;55560;52.174;20.996;2022-12-20T02:39:43;101070.40;;;1.50
68588;BMP180;55560;52.174;20.996;2022-12-20T02:42:23;101073.60;;;1.50
68588;BMP180;55560;52.174;20.996;2022-12-20T02:45:00;101073.60;;;1.52
68588;BMP180;55560;52.174;20.996;2022-12-20T02:48:06;101069.40;;;1.60
68588;BMP180;55560;52.174;20.996;2022-12-20T02:50:44;101077.00;;;1.60
68588;BMP180;55560;52.174;20.996;2022-12-20T02:53:13;101072.20;;;1.70
68588;BMP180;55560;52.174;20.996;2022-12-20T02:55:53;101074.20;;;1.70
68588;BMP180;55560;52.174;20.996;2022-12-20T02:58:52;101070.80;;;1.70
68588;BMP180;55560;52.174;20.996;2022-12-20T03:01:29;101073.40;;;1.70
68588;BMP180;55560;52.174;20.996;2022-12-20T03:03:59;101065.40;;;1.70
68588;BMP180;55560;52.174;20.996;2022-12-20T03:06:28;101050.80;;;1.70
68588;BMP180;55560;52.174;20.996;2022-12-20T03:08:57;101049.60;;;1.70
68588;BMP180;55560;52.174;20.996;2022-12-20T03:11:27;101047.80;;;1.70
68588;BMP180;55560;52.174;20.996;2022-12-20T03:13:55;101043.60;;;1.70
68588;BMP180;55560;52.174;20.996;2022-12-20T03:16:23;101038.00;;;1.74
68588;BMP180;55560;52.174;20.996;2022-12-20T03:18:50;101036.60;;;1.80
68588;BMP180;55560;52.174;20.996;2022-12-20T03:21:18;101029.80;;;1.80
68588;BMP180;55560;52.174;20.996;2022-12-20T03:23:46;101036.40;;;1.80
68588;BMP180;55560;52.174;20.996;2022-12-20T03:26:14;101039.60;;;1.80
68588;BMP180;55560;52.174;20.996;2022-12-20T03:28:45;101042.00;;;1.80
68588;BMP180;55560;52.174;20.996;2022-12-20T03:31:16;101047.00;;;1.80
68588;BMP180;55560;52.174;20.996;2022-12-20T03:33:47;101081.80;;;1.80
68588;BMP180;55560;52.174;20.996;2022-12-20T03:36:16;101053.60;;;1.90
68588;BMP180;55560;52.174;20.996;2022-12-20T03:38:44;101050.00;;;1.90
68588;BMP180;55560;52.174;20.996;2022-12-20T03:41:12;101031.40;;;1.94
68588;BMP180;55560;52.174;20.996;2022-12-20T03:43:40;101026.80;;;2.00
68588;BMP180;55560;52.174;20.996;2022-12-20T03:46:09;101038.00;;;2.08
68588;BMP180;55560;52.174;20.996;2022-12-20T03:48:37;101052.20;;;2.10
68588;BMP180;55560;52.174;20.996;2022-12-20T03:51:06;101033.80;;;2.10
68588;BMP180;55560;52.174;20.996;2022-12-20T03:53:35;101029.00;;;2.10
68588;BMP180;55560;52.174;20.996;2022-12-20T03:56:03;101027.80;;;2.10
68588;BMP180;55560;52.174;20.996;2022-12-20T03:58:30;101023.40;;;2.08
68588;BMP180;55560;52.174;20.996;2022-12-20T04:00:59;101038.20;;;2.00
68588;BMP180;55560;52.174;20.996;2022-12-20T04:03:48;101044.20;;;2.00
68588;BMP180;55560;52.174;20.996;2022-12-20T04:06:17;101051.00;;;2.00
68588;BMP180;55560;52.174;20.996;2022-12-20T04:08:45;101053.40;;;1.98
68588;BMP180;55560;52.174;20.996;2022-12-20T04:11:17;101053.00;;;2.00
68588;BMP180;55560;52.174;20.996;2022-12-20T04:14:05;101045.20;;;2.00
68588;BMP180;55560;52.174;20.996;2022-12-20T04:16:33;101050.20;;;2.08
68588;BMP180;55560;52.174;20.996;2022-12-20T04:19:01;101044.80;;;2.10
68588;BMP180;55560;52.174;20.996;2022-12-20T04:21:34;101038.60;;;2.20
68588;BMP180;55560;52.174;20.996;2022-12-20T04:24:05;101033.20;;;2.20
68588;BMP180;55560;52.174;20.996;2022-12-20T04:26:39;101022.60;;;2.30
68588;BMP180;55560;52.174;20.996;2022-12-20T04:29:07;101014.20;;;2.30
68588;BMP180;55560;52.174;20.996;2022-12-20T04:31:35;101011.40;;;2.32
68588;BMP180;55560;52.174;20.996;2022-12-20T04:34:03;101010.00;;;2.34
68588;BMP180;55560;52.174;20.996;2022-12-20T04:36:32;101009.00;;;2.30
68588;BMP180;55560;52.174;20.996;2022-12-20T04:39:02;101018.60;;;2.30
68588;BMP180;55560;52.174;20.996;2022-12-20T04:41:35;101011.80;;;2.30
68588;BMP180;55560;52.174;20.996;2022-12-20T04:44:07;101020.40;;;2.30
68588;BMP180;55560;52.174;20.996;2022-12-20T04:46:36;101023.20;;;2.30
68588;BMP180;55560;52.174;20.996;2022-12-20T04:49:06;101025.60;;;2.30
68588;BMP180;55560;52.174;20.996;2022-12-20T04:51:34;101020.80;;;2.30
68588;BMP180;55560;52.174;20.996;2022-12-20T04:54:02;101026.60;;;2.38
68588;BMP180;55560;52.174;20.996;2022-12-20T04:56:44;101021.40;;;2.40
68588;BMP180;55560;52.174;20.996;2022-12-20T04:59:15;101021.80;;;2.40
68588;BMP180;55560;52.174;20.996;2022-12-20T05:01:45;101019.80;;;2.40
68588;BMP180;55560;52.174;20.996;2022-12-20T05:04:16;101024.60;;;2.42
68588;BMP180;55560;52.174;20.996;2022-12-20T05:06:43;101018.40;;;2.40
68588;BMP180;55560;52.174;20.996;2022-12-20T05:09:12;101013.40;;;2.40
68588;BMP180;55560;52.174;20.996;2022-12-20T05:11:39;101023.20;;;2.40
68588;BMP180;55560;52.174;20.996;2022-12-20T05:14:08;101017.00;;;2.40
68588;BMP180;55560;52.174;20.996;2022-12-20T05:16:35;101013.80;;;2.40
68588;BMP180;55560;52.174;20.996;2022-12-20T05:19:05;101001.40;;;2.40
68588;BMP180;55560;52.174;20.996;2022-12-20T05:21:37;100993.80;;;2.40
68588;BMP180;55560;52.174;20.996;2022-12-20T05:24:24;100978.80;;;2.40
68588;BMP180;55560;52.174;20.996;2022-12-20T05:27:22;100991.00;;;2.44
68588;BMP180;55560;52.174;20.996;2022-12-20T05:29:50;100999.80;;;2.50
68588;BMP180;55560;52.174;20.996;2022-12-20T05:32:17;100998.00;;;2.50
68588;BMP180;55560;52.174;20.996;2022-12-20T05:34:45;100989.80;;;2.52
68588;BMP180;55560;52.174;20.996;2022-12-20T05:37:14;100989.60;;;2.58
68588;BMP180;55560;52.174;20.996;2022-12-20T05:39:42;100980.40;;;2.60
68588;BMP180;55560;52.174;20.996;2022-12-20T05:42:15;100984.00;;;2.58
68588;BMP180;55560;52.174;20.996;2022-12-20T05:44:43;100982.80;;;2.50
68588;BMP180;55560;52.174;20.996;2022-12-20T05:47:11;100985.80;;;2.50
68588;BMP180;55560;52.174;20.996;2022-12-20T05:49:39;100989.40;;;2.50
68588;BMP180;55560;52.174;20.996;2022-12-20T05:52:09;100994.60;;;2.44
68588;BMP180;55560;52.174;20.996;2022-12-20T05:54:38;100993.00;;;2.40
68588;BMP180;55560;52.174;20.996;2022-12-20T05:57:10;100990.60;;;2.40
68588;BMP180;55560;52.174;20.996;2022-12-20T05:59:39;100988.80;;;2.40
68588;BMP180;55560;52.174;20.996;2022-12-20T06:02:16;100989.00;;;2.50
68588;BMP180;55560;52.174;20.996;2022-12-20T06:04:45;100988.00;;;2.56
68588;BMP180;55560;52.174;20.996;2022-12-20T06:07:16;100989.20;;;2.60
68588;BMP180;55560;52.174;20.996;2022-12-20T06:09:48;100986.20;;;2.70
68588;BMP180;55560;52.174;20.996;2022-12-20T06:12:18;100981.60;;;2.72
68588;BMP180;55560;52.174;20.996;2022-12-20T06:14:47;100985.80;;;2.80
68588;BMP180;55560;52.174;20.996;2022-12-20T06:17:15;100983.60;;;2.78
68588;BMP180;55560;52.174;20.996;2022-12-20T06:19:43;100980.00;;;2.80
68588;BMP180;55560;52.174;20.996;2022-12-20T06:22:14;100977.00;;;2.80
68588;BMP180;55560;52.174;20.996;2022-12-20T06:24:46;100982.20;;;2.80
68588;BMP180;55560;52.174;20.996;2022-12-20T06:27:18;100986.60;;;2.80
68588;BMP180;55560;52.174;20.996;2022-12-20T06:29:53;100990.60;;;2.72
68588;BMP180;55560;52.174;20.996;2022-12-20T06:32:24;100995.60;;;2.72
68588;BMP180;55560;52.174;20.996;2022-12-20T06:34:53;100989.60;;;2.74
68588;BMP180;55560;52.174;20.996;2022-12-20T06:37:21;100990.60;;;2.80
68588;BMP180;55560;52.174;20.996;2022-12-20T06:39:49;100986.00;;;2.80
68588;BMP180;55560;52.174;20.996;2022-12-20T06:42:17;100988.60;;;2.80
68588;BMP180;55560;52.174;20.996;2022-12-20T06:44:45;100994.00;;;2.90
68588;BMP180;55560;52.174;20.996;2022-12-20T06:47:13;100989.80;;;2.90
68588;BMP180;55560;52.174;20.996;2022-12-20T06:49:41;100982.40;;;2.90
68588;BMP180;55560;52.174;20.996;2022-12-20T06:52:16;100983.60;;;2.90
68588;BMP180;55560;52.174;20.996;2022-12-20T06:54:47;100988.40;;;2.86
68588;BMP180;55560;52.174;20.996;2022-12-20T06:57:15;101002.00;;;2.86
68588;BMP180;55560;52.174;20.996;2022-12-20T06:59:46;101001.60;;;2.80
68588;BMP180;55560;52.174;20.996;2022-12-20T07:02:14;101000.20;;;2.80
68588;BMP180;55560;52.174;20.996;2022-12-20T07:04:42;101001.00;;;2.82
68588;BMP180;55560;52.174;20.996;2022-12-20T07:07:12;100999.40;;;2.82
68588;BMP180;55560;52.174;20.996;2022-12-20T07:09:40;101001.40;;;2.80
68588;BMP180;55560;52.174;20.996;2022-12-20T07:12:11;101008.00;;;2.80
68588;BMP180;55560;52.174;20.996;2022-12-20T07:14:38;101014.40;;;2.90
68588;BMP180;55560;52.174;20.996;2022-12-20T07:17:07;101007.20;;;2.90
68588;BMP180;55560;52.174;20.996;2022-12-20T07:19:35;101004.40;;;2.90
68588;BMP180;55560;52.174;20.996;2022-12-20T07:22:04;101004.00;;;2.90
68588;BMP180;55560;52.174;20.996;2022-12-20T07:24:33;101004.20;;;3.00
68588;BMP180;55560;52.174;20.996;2022-12-20T07:27:01;100997.80;;;3.00
68588;BMP180;55560;52.174;20.996;2022-12-20T07:29:29;100996.20;;;3.00
68588;BMP180;55560;52.174;20.996;2022-12-20T07:31:56;100999.60;;;3.10
68588;BMP180;55560;52.174;20.996;2022-12-20T07:34:24;101000.00;;;3.10
68588;BMP180;55560;52.174;20.996;2022-12-20T07:36:52;100998.60;;;3.10
68588;BMP180;55560;52.174;20.996;2022-12-20T07:39:20;100998.80;;;3.10
68588;BMP180;55560;52.174;20.996;2022-12-20T07:41:48;101002.00;;;3.10
68588;BMP180;55560;52.174;20.996;2022-12-20T07:44:16;100999.80;;;3.10
68588;BMP180;55560;52.174;20.996;2022-12-20T07:46:45;100999.20;;;3.10
68588;BMP180;55560;52.174;20.996;2022-12-20T07:49:13;101004.80;;;3.10
68588;BMP180;55560;52.174;20.996;2022-12-20T07:51:46;100996.60;;;3.10
68588;BMP180;55560;52.174;20.996;2022-12-20T07:54:30;100993.60;;;3.20
68588;BMP180;55560;52.174;20.996;2022-12-20T07:57:04;100992.40;;;3.20
68588;BMP180;55560;52.174;20.996;2022-12-20T07:59:39;100996.20;;;3.30
68588;BMP180;55560;52.174;20.996;2022-12-20T08:02:12;100999.00;;;3.30
68588;BMP180;55560;52.174;20.996;2022-12-20T08:04:42;100999.60;;;3.40
68588;BMP180;55560;52.174;20.996;2022-12-20T08:07:10;101001.40;;;3.40
68588;BMP180;55560;52.174;20.996;2022-12-20T08:09:40;101000.60;;;3.48
68588;BMP180;55560;52.174;20.996;2022-12-20T08:12:13;100996.20;;;3.50
68588;BMP180;55560;52.174;20.996;2022-12-20T08:14:43;101003.60;;;3.50
68588;BMP180;55560;52.174;20.996;2022-12-20T08:17:11;101012.60;;;3.50
68588;BMP180;55560;52.174;20.996;2022-12-20T08:19:39;101010.60;;;3.50
68588;BMP180;55560;52.174;20.996;2022-12-20T08:22:07;101006.40;;;3.50
68588;BMP180;55560;52.174;20.996;2022-12-20T08:24:35;101006.60;;;3.50
68588;BMP180;55560;52.174;20.996;2022-12-20T08:27:03;101009.60;;;3.50
68588;BMP180;55560;52.174;20.996;2022-12-20T08:29:30;101009.60;;;3.58
68588;BMP180;55560;52.174;20.996;2022-12-20T08:31:58;101007.00;;;3.60
68588;BMP180;55560;52.174;20.996;2022-12-20T08:34:26;100998.40;;;3.60
68588;BMP180;55560;52.174;20.996;2022-12-20T08:36:54;100987.60;;;3.62
68588;BMP180;55560;52.174;20.996;2022-12-20T08:39:22;100986.80;;;3.66
68588;BMP180;55560;52.174;20.996;2022-12-20T08:41:50;100985.00;;;3.68
68588;BMP180;55560;52.174;20.996;2022-12-20T08:44:18;100992.80;;;3.68
68588;BMP180;55560;52.174;20.996;2022-12-20T08:46:46;100985.80;;;3.60
68588;BMP180;55560;52.174;20.996;2022-12-20T08:49:13;100986.20;;;3.60
68588;BMP180;55560;52.174;20.996;2022-12-20T08:51:41;100982.00;;;3.60
68588;BMP180;55560;52.174;20.996;2022-12-20T08:54:10;100981.60;;;3.70
68588;BMP180;55560;52.174;20.996;2022-12-20T08:56:38;100981.80;;;3.70
68588;BMP180;55560;52.174;20.996;2022-12-20T08:59:05;100990.00;;;3.70
68588;BMP180;55560;52.174;20.996;2022-12-20T09:01:33;100983.20;;;3.70
68588;BMP180;55560;52.174;20.996;2022-12-20T09:04:02;100986.20;;;3.70
68588;BMP180;55560;52.174;20.996;2022-12-20T09:06:30;100985.00;;;3.70
68588;BMP180;55560;52.174;20.996;2022-12-20T09:08:58;100988.00;;;3.80
68588;BMP180;55560;52.174;20.996;2022-12-20T09:11:27;100990.00;;;3.80
68588;BMP180;55560;52.174;20.996;2022-12-20T09:13:57;100984.60;;;3.80
68588;BMP180;55560;52.174;20.996;2022-12-20T09:16:29;100979.40;;;3.90
68588;BMP180;55560;52.174;20.996;2022-12-20T09:18:59;100978.80;;;3.94
68588;BMP180;55560;52.174;20.996;2022-12-20T09:21:33;100982.60;;;4.00
68588;BMP180;55560;52.174;20.996;2022-12-20T09:24:02;100986.40;;;4.10
68588;BMP180;55560;52.174;20.996;2022-12-20T09:26:30;100990.00;;;4.10
68588;BMP180;55560;52.174;20.996;2022-12-20T09:28:59;100984.00;;;4.20
68588;BMP180;55560;52.174;20.996;2022-12-20T09:31:28;100978.40;;;4.24
68588;BMP180;55560;52.174;20.996;2022-12-20T09:33:58;100981.20;;;4.30
68588;BMP180;55560;52.174;20.996;2022-12-20T09:36:28;100978.60;;;4.30
68588;BMP180;55560;52.174;20.996;2022-12-20T09:38:56;100973.00;;;4.40
68588;BMP180;55560;52.174;20.996;2022-12-20T09:41:33;100971.00;;;4.40
68588;BMP180;55560;52.174;20.996;2022-12-20T09:44:30;100972.60;;;4.40
68588;BMP180;55560;52.174;20.996;2022-12-20T09:47:22;100969.60;;;4.46
68588;BMP180;55560;52.174;20.996;2022-12-20T09:49:54;100962.00;;;4.50
68588;BMP180;55560;52.174;20.996;2022-12-20T09:55:32;100974.60;;;4.68
68588;BMP180;55560;52.174;20.996;2022-12-20T10:00:51;100982.40;;;4.80
68588;BMP180;55560;52.174;20.996;2022-12-20T10:03:34;100985.80;;;4.80
68588;BMP180;55560;52.174;20.996;2022-12-20T10:06:28;100989.40;;;4.80
68588;BMP180;55560;52.174;20.996;2022-12-20T10:09:12;100981.40;;;4.80
68588;BMP180;55560;52.174;20.996;2022-12-20T10:12:00;100973.20;;;4.90
68588;BMP180;55560;52.174;20.996;2022-12-20T10:15:03;100973.00;;;4.90
68588;BMP180;55560;52.174;20.996;2022-12-20T10:20:56;100972.20;;;4.90
68588;BMP180;55560;52.174;20.996;2022-12-20T10:23:36;100970.60;;;4.80
68588;BMP180;55560;52.174;20.996;2022-12-20T10:26:12;100978.60;;;4.80
68588;BMP180;55560;52.174;20.996;2022-12-20T10:28:40;100972.60;;;4.80
68588;BMP180;55560;52.174;20.996;2022-12-20T10:31:14;100969.40;;;4.80
68588;BMP180;55560;52.174;20.996;2022-12-20T10:33:44;100971.00;;;4.80
68588;BMP180;55560;52.174;20.996;2022-12-20T10:36:33;100976.40;;;4.80
68588;BMP180;55560;52.174;20.996;2022-12-20T10:39:04;100965.20;;;4.88
68588;BMP180;55560;52.174;20.996;2022-12-20T10:44:20;100958.80;;;4.90
68588;BMP180;55560;52.174;20.996;2022-12-20T10:46:56;100950.00;;;4.96
68588;BMP180;55560;52.174;20.996;2022-12-20T10:49:37;100945.20;;;5.00
68588;BMP180;55560;52.174;20.996;2022-12-20T10:54:43;100941.60;;;5.00
68588;BMP180;55560;52.174;20.996;2022-12-20T10:59:48;100942.60;;;5.10
68588;BMP180;55560;52.174;20.996;2022-12-20T11:02:32;100931.80;;;5.10
68588;BMP180;55560;52.174;20.996;2022-12-20T11:07:59;100927.60;;;5.16
68588;BMP180;55560;52.174;20.996;2022-12-20T11:11:15;100915.60;;;5.10
68588;BMP180;55560;52.174;20.996;2022-12-20T11:13:45;100911.00;;;5.12
68588;BMP180;55560;52.174;20.996;2022-12-20T11:16:34;100908.80;;;5.20
68588;BMP180;55560;52.174;20.996;2022-12-20T11:19:34;100892.80;;;5.20
68588;BMP180;55560;52.174;20.996;2022-12-20T11:28:08;100870.40;;;5.30
68588;BMP180;55560;52.174;20.996;2022-12-20T11:34:22;100878.60;;;5.30
68588;BMP180;55560;52.174;20.996;2022-12-20T11:37:36;100882.00;;;5.30
68588;BMP180;55560;52.174;20.996;2022-12-20T11:40:30;100884.00;;;5.30
68588;BMP180;55560;52.174;20.996;2022-12-20T11:46:39;100889.60;;;5.20
68588;BMP180;55560;52.174;20.996;2022-12-20T11:52:34;100875.40;;;5.20
68588;BMP180;55560;52.174;20.996;2022-12-20T11:55:14;100876.80;;;5.20
68588;BMP180;55560;52.174;20.996;2022-12-20T11:58:03;100875.00;;;5.20
68588;BMP180;55560;52.174;20.996;2022-12-20T12:01:06;100863.80;;;5.30
68588;BMP180;55560;52.174;20.996;2022-12-20T12:03:39;100872.40;;;5.40
68588;BMP180;55560;52.174;20.996;2022-12-20T12:06:26;100870.00;;;5.50
68588;BMP180;55560;52.174;20.996;2022-12-20T12:09:13;100868.80;;;5.50
68588;BMP180;55560;52.174;20.996;2022-12-20T12:11:49;100867.20;;;5.50
68588;BMP180;55560;52.174;20.996;2022-12-20T12:18:02;100864.40;;;5.66
68588;BMP180;55560;52.174;20.996;2022-12-20T12:23:26;100869.00;;;5.80
68588;BMP180;55560;52.174;20.996;2022-12-20T12:26:01;100862.80;;;5.82
68588;BMP180;55560;52.174;20.996;2022-12-20T12:28:32;100862.40;;;5.90
68588;BMP180;55560;52.174;20.996;2022-12-20T12:31:07;100867.00;;;5.90
68588;BMP180;55560;52.174;20.996;2022-12-20T12:33:51;100864.80;;;5.90
68588;BMP180;55560;52.174;20.996;2022-12-20T12:46:00;100867.60;;;6.00
68588;BMP180;55560;52.174;20.996;2022-12-20T12:48:42;100865.20;;;5.90
68588;BMP180;55560;52.174;20.996;2022-12-20T12:51:14;100869.60;;;5.90
68588;BMP180;55560;52.174;20.996;2022-12-20T12:53:53;100870.00;;;5.90
68588;BMP180;55560;52.174;20.996;2022-12-20T13:07:42;100863.20;;;5.70
68588;BMP180;55560;52.174;20.996;2022-12-20T13:18:01;100868.20;;;5.58
68588;BMP180;55560;52.174;20.996;2022-12-20T13:21:16;100877.80;;;5.56
68588;BMP180;55560;52.174;20.996;2022-12-20T13:23:45;100871.00;;;5.50
68588;BMP180;55560;52.174;20.996;2022-12-20T13:26:49;100871.40;;;5.50
68588;BMP180;55560;52.174;20.996;2022-12-20T13:29:27;100881.60;;;5.50
68588;BMP180;55560;52.174;20.996;2022-12-20T13:32:01;100887.20;;;5.46
68588;BMP180;55560;52.174;20.996;2022-12-20T13:34:53;100880.00;;;5.40
68588;BMP180;55560;52.174;20.996;2022-12-20T13:37:52;100883.80;;;5.50
68588;BMP180;55560;52.174;20.996;2022-12-20T13:40:53;100882.80;;;5.50
68588;BMP180;55560;52.174;20.996;2022-12-20T13:43:32;100882.20;;;5.50
68588;BMP180;55560;52.174;20.996;2022-12-20T13:51:05;100889.20;;;5.50
68588;BMP180;55560;52.174;20.996;2022-12-20T13:53:34;100892.40;;;5.50
68588;BMP180;55560;52.174;20.996;2022-12-20T13:56:36;100896.80;;;5.50
68588;BMP180;55560;52.174;20.996;2022-12-20T13:59:14;100886.80;;;5.40
68588;BMP180;55560;52.174;20.996;2022-12-20T14:01:55;100892.40;;;5.40
68588;BMP180;55560;52.174;20.996;2022-12-20T14:04:25;100884.40;;;5.38
68588;BMP180;55560;52.174;20.996;2022-12-20T14:07:00;100886.00;;;5.30
68588;BMP180;55560;52.174;20.996;2022-12-20T14:09:37;100877.80;;;5.30
68588;BMP180;55560;52.174;20.996;2022-12-20T14:12:12;100870.20;;;5.20
68588;BMP180;55560;52.174;20.996;2022-12-20T14:14:49;100865.40;;;5.20
68588;BMP180;55560;52.174;20.996;2022-12-20T14:17:32;100854.40;;;5.18
68588;BMP180;55560;52.174;20.996;2022-12-20T14:20:12;100847.00;;;5.10
68588;BMP180;55560;52.174;20.996;2022-12-20T14:23:01;100850.60;;;5.10
68588;BMP180;55560;52.174;20.996;2022-12-20T14:25:45;100851.40;;;5.10
68588;BMP180;55560;52.174;20.996;2022-12-20T14:28:38;100856.80;;;5.20
68588;BMP180;55560;52.174;20.996;2022-12-20T14:36:40;100859.00;;;5.20
68588;BMP180;55560;52.174;20.996;2022-12-20T14:42:33;100860.20;;;5.20
68588;BMP180;55560;52.174;20.996;2022-12-20T14:45:22;100855.60;;;5.10
68588;BMP180;55560;52.174;20.996;2022-12-20T14:48:14;100856.80;;;5.10
68588;BMP180;55560;52.174;20.996;2022-12-20T14:50:52;100862.80;;;5.02
68588;BMP180;55560;52.174;20.996;2022-12-20T14:53:25;100857.20;;;5.00
68588;BMP180;55560;52.174;20.996;2022-12-20T14:55:56;100856.60;;;5.00
68588;BMP180;55560;52.174;20.996;2022-12-20T14:58:30;100858.00;;;5.00
68588;BMP180;55560;52.174;20.996;2022-12-20T15:01:17;100860.40;;;5.00
68588;BMP180;55560;52.174;20.996;2022-12-20T15:03:58;100854.60;;;4.90
68588;BMP180;55560;52.174;20.996;2022-12-20T15:06:36;100854.60;;;4.90
68588;BMP180;55560;52.174;20.996;2022-12-20T15:09:06;100849.60;;;4.90
68588;BMP180;55560;52.174;20.996;2022-12-20T15:11:36;100845.80;;;4.82
68588;BMP180;55560;52.174;20.996;2022-12-20T15:14:33;100840.20;;;4.80
68588;BMP180;55560;52.174;20.996;2022-12-20T15:17:08;100831.40;;;4.80
68588;BMP180;55560;52.174;20.996;2022-12-20T15:19:36;100824.20;;;4.72
68588;BMP180;55560;52.174;20.996;2022-12-20T15:22:16;100822.00;;;4.70
68588;BMP180;55560;52.174;20.996;2022-12-20T15:24:44;100826.00;;;4.64
68588;BMP180;55560;52.174;20.996;2022-12-20T15:27:14;100821.40;;;4.62
68588;BMP180;55560;52.174;20.996;2022-12-20T15:29:42;100822.60;;;4.60
68588;BMP180;55560;52.174;20.996;2022-12-20T15:32:23;100819.60;;;4.60
68588;BMP180;55560;52.174;20.996;2022-12-20T15:34:52;100818.60;;;4.60
68588;BMP180;55560;52.174;20.996;2022-12-20T15:37:20;100812.20;;;4.62
68588;BMP180;55560;52.174;20.996;2022-12-20T15:39:48;100812.20;;;4.60
68588;BMP180;55560;52.174;20.996;2022-12-20T15:42:17;100812.40;;;4.60
68588;BMP180;55560;52.174;20.996;2022-12-20T15:44:46;100816.60;;;4.60
68588;BMP180;55560;52.174;20.996;2022-12-20T15:47:15;100813.40;;;4.60
68588;BMP180;55560;52.174;20.996;2022-12-20T15:49:43;100818.20;;;4.60
68588;BMP180;55560;52.174;20.996;2022-12-20T15:52:22;100812.40;;;4.54
68588;BMP180;55560;52.174;20.996;2022-12-20T15:54:50;100813.00;;;4.50
68588;BMP180;55560;52.174;20.996;2022-12-20T15:57:18;100810.20;;;4.50
68588;BMP180;55560;52.174;20.996;2022-12-20T15:59:47;100809.40;;;4.50
68588;BMP180;55560;52.174;20.996;2022-12-20T16:02:29;100797.60;;;4.50
68588;BMP180;55560;52.174;20.996;2022-12-20T16:04:58;100799.40;;;4.46
68588;BMP180;55560;52.174;20.996;2022-12-20T16:07:26;100807.40;;;4.42
68588;BMP180;55560;52.174;20.996;2022-12-20T16:09:54;100811.80;;;4.40
68588;BMP180;55560;52.174;20.996;2022-12-20T16:12:27;100812.20;;;4.46